Time,TemperatureF,DewpointF,PressureIn,WindDirection,WindDirectionDegrees,WindSpeedMPH,WindSpeedGustMPH,Humidity,HourlyPrecipIn,Conditions,Clouds,dailyrainin,SoftwareType,DateUTC
2013-04-08 00:02:00,20.2,15.3,30.15,SE,139,0.0,0.0,81,0.00,,,0.00,VWS V14.01,2013-04-08 06:02:00,
2013-04-08 00:07:00,20.0,15.1,30.15,SE,134,0.0,0.0,81,0.00,,,0.00,VWS V14.01,2013-04-08 06:07:00,
2013-04-08 00:12:00,20.0,15.1,30.15,SE,139,0.0,0.0,81,0.00,,,0.00,VWS V14.01,2013-04-08 06:12:00,
2013-04-08 00:17:00,20.0,15.1,30.15,SE,139,0.0,0.0,81,0.00,,,0.00,VWS V14.01,2013-04-08 06:17:00,
2013-04-08 00:22:00,20.0,15.1,30.15,SE,139,0.0,0.0,81,0.00,,,0.00,VWS V14.01,2013-04-08 06:22:00,
2013-04-08 00:27:00,20.0,15.1,30.15,SE,139,0.0,0.0,81,0.00,,,0.00,VWS V14.01,2013-04-08 06:27:00,
2013-04-08 00:32:00,20.0,15.1,30.16,ESE,115,0.0,0.0,81,0.00,,,0.00,VWS V14.01,2013-04-08 06:32:00,
2013-04-08 00:37:00,20.0,15.1,30.16,SE,130,0.0,0.0,81,0.00,,,0.00,VWS V14.01,2013-04-08 06:37:00,
2013-04-08 00:42:00,20.2,15.3,30.16,SE,130,0.0,0.0,81,0.00,,,0.00,VWS V14.01,2013-04-08 06:42:00,
2013-04-08 00:47:00,20.2,15.3,30.17,SE,130,0.0,0.0,81,0.00,,,0.00,VWS V14.01,2013-04-08 06:47:00,
2013-04-08 00:52:00,20.2,15.3,30.17,SE,130,0.0,0.0,81,0.00,,,0.00,VWS V14.01,2013-04-08 06:52:00,
2013-04-08 00:57:00,20.2,15.3,30.17,SE,130,0.0,0.0,81,0.00,,,0.00,VWS V14.01,2013-04-08 06:57:00,
2013-04-08 01:02:00,20.2,15.3,30.17,SSE,162,0.0,0.0,81,0.00,,,0.00,VWS V14.01,2013-04-08 07:02:00,
2013-04-08 01:07:00,20.2,15.3,30.17,SSE,162,0.0,0.0,81,0.00,,,0.00,VWS V14.01,2013-04-08 07:07:00,
2013-04-08 01:12:00,20.2,15.3,30.17,SSE,162,0.0,0.0,81,0.00,,,0.00,VWS V14.01,2013-04-08 07:12:00,
2013-04-08 01:17:00,20.2,15.3,30.17,South,187,0.0,0.0,81,0.00,,,0.00,VWS V14.01,2013-04-08 07:17:00,
2013-04-08 01:22:00,20.3,15.7,30.17,SSE,162,0.0,0.0,82,0.00,,,0.00,VWS V14.01,2013-04-08 07:22:00,
2013-04-08 01:27:00,20.5,15.9,30.17,SE,146,0.0,0.0,82,0.00,,,0.00,VWS V14.01,2013-04-08 07:27:00,
2013-04-08 01:32:00,20.3,15.4,30.16,SSE,147,0.0,0.0,81,0.00,,,0.00,VWS V14.01,2013-04-08 07:32:00,
2013-04-08 01:37:00,20.3,15.1,30.16,SSE,168,0.0,0.0,80,0.00,,,0.00,VWS V14.01,2013-04-08 07:37:00,
2013-04-08 01:42:00,20.2,15.0,30.16,SSE,164,0.0,0.0,80,0.00,,,0.00,VWS V14.01,2013-04-08 07:42:00,
2013-04-08 01:47:00,20.2,14.7,30.17,SE,131,0.0,0.0,79,0.00,,,0.00,VWS V14.01,2013-04-08 07:47:00,
2013-04-08 01:52:00,20.2,15.0,30.17,SE,126,0.0,0.0,80,0.00,,,0.00,VWS V14.01,2013-04-08 07:52:00,
2013-04-08 01:57:00,20.3,15.1,30.17,SE,126,0.0,0.0,80,0.00,,,0.00,VWS V14.01,2013-04-08 07:57:00,
2013-04-08 02:02:00,20.2,14.7,30.17,SE,132,0.0,0.0,79,0.00,,,0.00,VWS V14.01,2013-04-08 08:02:00,
2013-04-08 02:07:00,20.2,14.7,30.17,SE,132,0.0,0.0,79,0.00,,,0.00,VWS V14.01,2013-04-08 08:07:00,
2013-04-08 02:12:00,20.0,14.6,30.17,SE,132,0.0,0.0,79,0.00,,,0.00,VWS V14.01,2013-04-08 08:12:00,
2013-04-08 02:17:00,20.0,14.6,30.17,SE,132,0.0,0.0,79,0.00,,,0.00,VWS V14.01,2013-04-08 08:17:00,
2013-04-08 02:22:00,20.0,14.8,30.17,SE,132,0.0,0.0,80,0.00,,,0.00,VWS V14.01,2013-04-08 08:22:00,
2013-04-08 02:28:00,20.0,14.8,30.17,ESE,118,0.0,0.0,80,0.00,,,0.00,VWS V14.01,2013-04-08 08:28:00,
2013-04-08 02:33:00,19.9,14.7,30.17,ESE,120,0.0,0.0,80,0.00,,,0.00,VWS V14.01,2013-04-08 08:33:00,
2013-04-08 02:38:00,19.7,14.3,30.17,SSE,155,0.0,0.0,79,0.00,,,0.00,VWS V14.01,2013-04-08 08:38:00,
2013-04-08 02:43:00,19.7,14.3,30.17,SSE,155,0.0,0.0,79,0.00,,,0.00,VWS V14.01,2013-04-08 08:43:00,
2013-04-08 02:48:00,19.7,14.5,30.18,SSE,155,0.0,0.0,80,0.00,,,0.00,VWS V14.01,2013-04-08 08:48:00,
2013-04-08 02:53:00,19.5,14.4,30.18,SSE,155,0.0,0.0,80,0.00,,,0.00,VWS V14.01,2013-04-08 08:53:00,
2013-04-08 02:58:00,19.7,14.5,30.18,SSE,156,0.0,0.0,80,0.00,,,0.00,VWS V14.01,2013-04-08 08:58:00,
2013-04-08 03:03:00,19.7,14.8,30.18,SSE,156,0.0,0.0,81,0.00,,,0.00,VWS V14.01,2013-04-08 09:03:00,
2013-04-08 03:08:00,19.9,15.0,30.18,SSE,155,0.0,0.0,81,0.00,,,0.00,VWS V14.01,2013-04-08 09:08:00,
2013-04-08 03:13:00,19.7,14.5,30.18,SSE,155,0.0,0.0,80,0.00,,,0.00,VWS V14.01,2013-04-08 09:13:00,
2013-04-08 03:18:00,19.7,14.5,30.19,SSE,155,0.0,0.0,80,0.00,,,0.00,VWS V14.01,2013-04-08 09:18:00,
2013-04-08 03:23:00,19.7,14.8,30.19,SSE,155,0.0,0.0,81,0.00,,,0.00,VWS V14.01,2013-04-08 09:23:00,
2013-04-08 03:28:00,19.5,14.6,30.19,SSE,155,0.0,0.0,81,0.00,,,0.00,VWS V14.01,2013-04-08 09:28:00,
2013-04-08 03:33:00,19.5,14.6,30.20,SSE,155,0.0,0.0,81,0.00,,,0.00,VWS V14.01,2013-04-08 09:33:00,
2013-04-08 03:38:00,19.5,14.6,30.20,SSE,155,0.0,0.0,81,0.00,,,0.00,VWS V14.01,2013-04-08 09:38:00,
2013-04-08 03:43:00,19.4,14.5,30.20,SSE,155,0.0,0.0,81,0.00,,,0.00,VWS V14.01,2013-04-08 09:43:00,
2013-04-08 03:48:00,19.2,14.3,30.20,SSE,155,0.0,0.0,81,0.00,,,0.00,VWS V14.01,2013-04-08 09:48:00,
2013-04-08 03:53:00,19.1,14.0,30.20,SSE,155,0.0,0.0,80,0.00,,,0.00,VWS V14.01,2013-04-08 09:53:00,
2013-04-08 03:58:00,18.9,14.0,30.20,SE,139,0.0,0.0,81,0.00,,,0.00,VWS V14.01,2013-04-08 09:58:00,
2013-04-08 04:03:00,18.6,13.8,30.20,SE,146,0.0,1.0,81,0.00,,,0.00,VWS V14.01,2013-04-08 10:03:00,
2013-04-08 04:08:00,18.4,13.6,30.20,SE,131,0.0,1.0,81,0.00,,,0.00,VWS V14.01,2013-04-08 10:08:00,
2013-04-08 04:13:00,18.3,13.5,30.20,SSE,147,0.0,1.0,81,0.00,,,0.00,VWS V14.01,2013-04-08 10:13:00,
2013-04-08 04:18:00,18.1,13.3,30.21,SE,139,0.0,1.0,81,0.00,,,0.00,VWS V14.01,2013-04-08 10:18:00,
2013-04-08 04:23:00,18.0,12.9,30.21,SE,139,0.0,1.0,80,0.00,,,0.00,VWS V14.01,2013-04-08 10:23:00,
2013-04-08 04:28:00,18.0,13.2,30.21,SE,125,0.0,1.0,81,0.00,,,0.00,VWS V14.01,2013-04-08 10:28:00,
2013-04-08 04:33:00,18.0,13.2,30.21,SE,125,0.0,0.0,81,0.00,,,0.00,VWS V14.01,2013-04-08 10:33:00,
2013-04-08 04:38:00,17.8,12.7,30.21,East,101,0.0,0.0,80,0.00,,,0.00,VWS V14.01,2013-04-08 10:38:00,
2013-04-08 04:43:00,17.7,12.3,30.21,ESE,108,0.0,0.0,79,0.00,,,0.00,VWS V14.01,2013-04-08 10:43:00,
2013-04-08 04:48:00,17.7,12.3,30.22,ESE,118,0.0,0.0,79,0.00,,,0.00,VWS V14.01,2013-04-08 10:48:00,
2013-04-08 04:53:00,17.5,11.8,30.22,ESE,116,0.0,1.0,78,0.00,,,0.00,VWS V14.01,2013-04-08 10:53:00,
2013-04-08 04:58:00,17.3,11.6,30.22,SE,133,0.0,1.0,78,0.00,,,0.00,VWS V14.01,2013-04-08 10:58:00,
2013-04-08 05:03:00,17.3,11.9,30.24,SE,143,0.0,0.0,79,0.00,,,0.00,VWS V14.01,2013-04-08 11:03:00,
2013-04-08 05:08:00,17.3,11.9,30.24,NE,44,0.0,0.0,79,0.00,,,0.00,VWS V14.01,2013-04-08 11:08:00,
2013-04-08 05:13:00,17.3,11.9,30.24,SE,133,0.0,0.0,79,0.00,,,0.00,VWS V14.01,2013-04-08 11:13:00,
2013-04-08 05:18:00,17.2,11.5,30.24,SE,138,0.0,0.0,78,0.00,,,0.00,VWS V14.01,2013-04-08 11:18:00,
2013-04-08 05:23:00,17.2,11.8,30.24,SE,137,0.0,0.0,79,0.00,,,0.00,VWS V14.01,2013-04-08 11:23:00,
2013-04-08 05:28:00,17.2,11.8,30.24,ESE,123,0.0,0.0,79,0.00,,,0.00,VWS V14.01,2013-04-08 11:28:00,
2013-04-08 05:33:00,17.2,11.8,30.24,SE,127,0.0,0.0,79,0.00,,,0.00,VWS V14.01,2013-04-08 11:33:00,
2013-04-08 05:38:00,17.2,11.8,30.24,SSE,160,0.0,0.0,79,0.00,,,0.00,VWS V14.01,2013-04-08 11:38:00,
2013-04-08 05:43:00,17.0,11.6,30.24,ESE,116,0.0,0.0,79,0.00,,,0.00,VWS V14.01,2013-04-08 11:43:00,
2013-04-08 05:48:00,17.2,11.8,30.24,ESE,103,0.0,0.0,79,0.00,,,0.00,VWS V14.01,2013-04-08 11:48:00,
2013-04-08 05:53:00,17.2,11.8,30.24,SSE,147,0.0,0.0,79,0.00,,,0.00,VWS V14.01,2013-04-08 11:53:00,
2013-04-08 05:58:00,17.2,12.1,30.24,SE,131,0.0,0.0,80,0.00,,,0.00,VWS V14.01,2013-04-08 11:58:00,
2013-04-08 06:03:00,17.3,12.2,30.25,SE,129,0.0,0.0,80,0.00,,,0.00,VWS V14.01,2013-04-08 12:03:00,
2013-04-08 06:08:00,17.3,12.2,30.25,SE,127,0.0,0.0,80,0.00,,,0.00,VWS V14.01,2013-04-08 12:08:00,
2013-04-08 06:13:00,17.2,12.1,30.25,ESE,120,0.0,0.0,80,0.00,,,0.00,VWS V14.01,2013-04-08 12:13:00,
2013-04-08 06:18:00,17.2,12.1,30.26,ESE,120,0.0,0.0,80,0.00,,,0.00,VWS V14.01,2013-04-08 12:18:00,
2013-04-08 06:23:00,17.2,12.1,30.26,SE,136,0.0,0.0,80,0.00,,,0.00,VWS V14.01,2013-04-08 12:23:00,
2013-04-08 06:28:00,17.2,12.1,30.26,SE,136,0.0,0.0,80,0.00,,,0.00,VWS V14.01,2013-04-08 12:28:00,
2013-04-08 06:33:00,17.0,11.9,30.27,ESE,105,0.0,0.0,80,0.00,,,0.00,VWS V14.01,2013-04-08 12:33:00,
2013-04-08 06:38:00,17.0,11.9,30.27,SSE,153,0.0,1.0,80,0.00,,,0.00,VWS V14.01,2013-04-08 12:38:00,
2013-04-08 06:43:00,16.9,11.8,30.27,SE,124,0.0,1.0,80,0.00,,,0.00,VWS V14.01,2013-04-08 12:43:00,
2013-04-08 06:48:00,16.9,11.8,30.27,SE,124,0.0,1.0,80,0.00,,,0.00,VWS V14.01,2013-04-08 12:48:00,
2013-04-08 06:53:00,16.9,11.5,30.27,East,96,0.0,1.0,79,0.00,,,0.00,VWS V14.01,2013-04-08 12:53:00,
2013-04-08 06:58:00,16.7,11.6,30.27,SE,131,0.0,1.0,80,0.00,,,0.00,VWS V14.01,2013-04-08 12:58:00,
2013-04-08 07:03:00,16.7,11.3,30.29,SE,133,0.0,2.0,79,0.00,,,0.00,VWS V14.01,2013-04-08 13:03:00,
2013-04-08 07:08:00,16.5,11.4,30.29,SE,140,0.0,2.0,80,0.00,,,0.00,VWS V14.01,2013-04-08 13:08:00,
2013-04-08 07:13:00,16.5,11.1,30.29,SE,138,0.0,2.0,79,0.00,,,0.00,VWS V14.01,2013-04-08 13:13:00,
2013-04-08 07:18:00,16.5,11.4,30.29,SE,143,0.0,2.0,80,0.00,,,0.00,VWS V14.01,2013-04-08 13:18:00,
2013-04-08 07:23:00,16.4,11.0,30.29,SE,141,0.0,2.0,79,0.00,,,0.00,VWS V14.01,2013-04-08 13:23:00,
2013-04-08 07:28:00,16.5,11.4,30.29,SE,135,0.0,2.0,80,0.00,,,0.00,VWS V14.01,2013-04-08 13:28:00,
2013-04-08 07:33:00,16.7,11.9,30.30,SE,136,0.0,0.0,81,0.00,,,0.00,VWS V14.01,2013-04-08 13:33:00,
2013-04-08 07:38:00,16.7,11.6,30.30,ESE,120,0.0,0.0,80,0.00,,,0.00,VWS V14.01,2013-04-08 13:38:00,
2013-04-08 07:43:00,16.5,11.1,30.30,SE,142,0.0,0.0,79,0.00,,,0.00,VWS V14.01,2013-04-08 13:43:00,
2013-04-08 07:48:00,16.5,11.1,30.30,East,94,0.0,0.0,79,0.00,,,0.00,VWS V14.01,2013-04-08 13:48:00,
2013-04-08 07:53:00,16.5,11.4,30.30,ESE,118,0.0,1.0,80,0.00,,,0.00,VWS V14.01,2013-04-08 13:53:00,
2013-04-08 07:58:00,16.5,11.4,30.30,SSE,160,0.0,1.0,80,0.00,,,0.00,VWS V14.01,2013-04-08 13:58:00,
2013-04-08 08:03:00,16.5,11.7,30.30,SSE,154,0.0,1.0,81,0.00,,,0.00,VWS V14.01,2013-04-08 14:03:00,
2013-04-08 08:08:00,16.5,11.4,30.30,ESE,117,1.0,1.0,80,0.00,,,0.00,VWS V14.01,2013-04-08 14:08:00,
2013-04-08 08:13:00,16.4,11.0,30.30,ESE,105,0.0,1.0,79,0.00,,,0.00,VWS V14.01,2013-04-08 14:13:00,
2013-04-08 08:18:00,16.4,11.0,30.32,ESE,111,0.0,3.0,79,0.00,,,0.00,VWS V14.01,2013-04-08 14:18:00,
2013-04-08 08:23:00,16.4,11.0,30.32,SSE,150,0.0,3.0,79,0.00,,,0.00,VWS V14.01,2013-04-08 14:23:00,
2013-04-08 08:28:00,16.5,10.9,30.32,ESE,122,0.0,3.0,78,0.00,,,0.00,VWS V14.01,2013-04-08 14:28:00,
2013-04-08 08:33:00,16.5,10.9,30.33,ESE,115,0.0,0.0,78,0.00,,,0.00,VWS V14.01,2013-04-08 14:33:00,
2013-04-08 08:38:00,16.9,11.5,30.33,East,93,0.0,0.0,79,0.00,,,0.00,VWS V14.01,2013-04-08 14:38:00,
2013-04-08 08:43:00,16.9,11.2,30.33,ESE,105,0.0,1.0,78,0.00,,,0.00,VWS V14.01,2013-04-08 14:43:00,
2013-04-08 08:48:00,16.9,11.2,30.33,ESE,113,0.0,1.0,78,0.00,,,0.00,VWS V14.01,2013-04-08 14:48:00,
2013-04-08 08:53:00,16.9,11.2,30.33,South,171,0.0,1.0,78,0.00,,,0.00,VWS V14.01,2013-04-08 14:53:00,
2013-04-08 08:58:00,17.0,11.3,30.33,SE,130,0.0,1.0,78,0.00,,,0.00,VWS V14.01,2013-04-08 14:58:00,
2013-04-08 09:03:00,17.2,11.5,30.33,SE,124,0.0,0.0,78,0.00,,,0.00,VWS V14.01,2013-04-08 15:03:00,
2013-04-08 09:08:00,17.3,11.3,30.33,SE,126,0.0,0.0,77,0.00,,,0.00,VWS V14.01,2013-04-08 15:08:00,
2013-04-08 09:13:00,17.3,11.3,30.33,ESE,122,0.0,0.0,77,0.00,,,0.00,VWS V14.01,2013-04-08 15:13:00,
2013-04-08 09:18:00,17.3,11.1,30.34,ESE,108,0.0,0.0,76,0.00,,,0.00,VWS V14.01,2013-04-08 15:18:00,
2013-04-08 09:23:00,17.3,10.8,30.34,ESE,109,0.0,0.0,75,0.00,,,0.00,VWS V14.01,2013-04-08 15:23:00,
2013-04-08 09:28:00,17.5,10.9,30.34,SSE,148,0.0,0.0,75,0.00,,,0.00,VWS V14.01,2013-04-08 15:28:00,
2013-04-08 09:33:00,17.7,10.8,30.34,ESE,105,0.0,0.0,74,0.00,,,0.00,VWS V14.01,2013-04-08 15:33:00,
2013-04-08 09:38:00,17.8,11.2,30.34,ESE,113,0.0,0.0,75,0.00,,,0.00,VWS V14.01,2013-04-08 15:38:00,
2013-04-08 09:43:00,17.8,10.9,30.34,SSE,164,0.0,1.0,74,0.00,,,0.00,VWS V14.01,2013-04-08 15:43:00,
2013-04-08 09:48:00,18.0,11.1,30.34,SSE,157,0.0,1.0,74,0.00,,,0.00,VWS V14.01,2013-04-08 15:48:00,
2013-04-08 09:53:00,18.1,11.2,30.34,SE,125,0.0,1.0,74,0.00,,,0.00,VWS V14.01,2013-04-08 15:53:00,
2013-04-08 09:58:00,18.3,10.8,30.34,SSE,162,0.0,2.0,72,0.00,,,0.00,VWS V14.01,2013-04-08 15:58:00,
2013-04-08 10:03:00,18.3,10.8,30.35,SSE,150,0.0,3.0,72,0.00,,,0.00,VWS V14.01,2013-04-08 16:03:00,
2013-04-08 10:08:00,18.4,10.9,30.35,SE,129,0.0,3.0,72,0.00,,,0.00,VWS V14.01,2013-04-08 16:08:00,
2013-04-08 10:13:00,18.4,10.6,30.35,ESE,120,0.0,3.0,71,0.00,,,0.00,VWS V14.01,2013-04-08 16:13:00,
2013-04-08 10:18:00,18.8,11.0,30.34,SE,143,0.0,3.0,71,0.00,,,0.00,VWS V14.01,2013-04-08 16:18:00,
2013-04-08 10:23:00,18.8,11.0,30.34,SE,139,0.0,3.0,71,0.00,,,0.00,VWS V14.01,2013-04-08 16:23:00,
2013-04-08 10:28:00,18.9,11.1,30.34,SSE,158,0.0,3.0,71,0.00,,,0.00,VWS V14.01,2013-04-08 16:28:00,
2013-04-08 10:33:00,19.4,11.6,30.34,ESE,122,2.0,2.0,71,0.00,,,0.00,VWS V14.01,2013-04-08 16:33:00,
2013-04-08 10:38:00,19.7,11.2,30.34,SSE,160,0.0,4.0,69,0.00,,,0.00,VWS V14.01,2013-04-08 16:38:00,
2013-04-08 10:43:00,19.7,11.2,30.34,SSE,156,0.0,4.0,69,0.00,,,0.00,VWS V14.01,2013-04-08 16:43:00,
2013-04-08 10:48:00,19.9,11.4,30.34,SSE,153,0.0,4.0,69,0.00,,,0.00,VWS V14.01,2013-04-08 16:48:00,
2013-04-08 10:53:00,20.0,11.5,30.34,ESE,120,0.0,4.0,69,0.00,,,0.00,VWS V14.01,2013-04-08 16:53:00,
2013-04-08 10:58:00,20.2,11.7,30.34,SSE,160,0.0,4.0,69,0.00,,,0.00,VWS V14.01,2013-04-08 16:58:00,
2013-04-08 11:04:00,20.2,11.7,30.34,South,169,0.0,4.0,69,0.00,,,0.00,VWS V14.01,2013-04-08 17:04:00,
2013-04-08 11:09:00,20.5,12.0,30.34,SE,129,0.0,4.0,69,0.00,,,0.00,VWS V14.01,2013-04-08 17:09:00,
2013-04-08 11:14:00,20.6,12.4,30.34,SE,132,0.0,4.0,70,0.00,,,0.00,VWS V14.01,2013-04-08 17:14:00,
2013-04-08 11:19:00,21.0,12.8,30.34,South,184,0.0,4.0,70,0.00,,,0.00,VWS V14.01,2013-04-08 17:19:00,
2013-04-08 11:24:00,21.1,12.9,30.34,South,191,0.0,4.0,70,0.00,,,0.00,VWS V14.01,2013-04-08 17:24:00,
2013-04-08 11:29:00,21.3,12.7,30.34,SSE,149,0.0,4.0,69,0.00,,,0.00,VWS V14.01,2013-04-08 17:29:00,
2013-04-08 11:34:00,21.4,12.8,30.34,SE,136,0.0,0.0,69,0.00,,,0.00,VWS V14.01,2013-04-08 17:34:00,
2013-04-08 11:40:00,21.1,12.5,30.34,SE,132,0.0,1.0,69,0.00,,,0.00,VWS V14.01,2013-04-08 17:40:00,
2013-04-08 11:44:00,21.4,12.8,30.34,ESE,121,0.0,2.0,69,0.00,,,0.00,VWS V14.01,2013-04-08 17:44:00,
2013-04-08 11:49:00,21.8,12.9,30.35,SSE,155,0.0,2.0,68,0.00,,,0.00,VWS V14.01,2013-04-08 17:49:00,
2013-04-08 11:54:00,21.8,12.9,30.35,SE,146,0.0,2.0,68,0.00,,,0.00,VWS V14.01,2013-04-08 17:54:00,
2013-04-08 11:59:00,21.6,13.0,30.35,East,86,0.0,2.0,69,0.00,,,0.00,VWS V14.01,2013-04-08 17:59:00,
2013-04-08 12:04:00,21.4,12.8,30.34,South,177,0.0,4.0,69,0.00,,,0.00,VWS V14.01,2013-04-08 18:04:00,
2013-04-08 12:10:00,22.1,13.5,30.34,SSE,149,0.0,4.0,69,0.00,,,0.00,VWS V14.01,2013-04-08 18:10:00,
2013-04-08 12:15:00,22.4,13.4,30.34,SSW,196,0.0,4.0,68,0.00,,,0.00,VWS V14.01,2013-04-08 18:15:00,
2013-04-08 12:20:00,22.7,13.4,30.35,South,169,0.0,4.0,67,0.00,,,0.00,VWS V14.01,2013-04-08 18:20:00,
2013-04-08 12:25:00,22.5,13.2,30.35,SE,127,1.0,4.0,67,0.00,,,0.00,VWS V14.01,2013-04-08 18:25:00,
2013-04-08 12:30:00,22.7,13.4,30.35,South,179,0.0,4.0,67,0.00,,,0.00,VWS V14.01,2013-04-08 18:30:00,
2013-04-08 12:35:00,23.3,14.3,30.35,ESE,122,0.0,0.0,68,0.00,,,0.00,VWS V14.01,2013-04-08 18:35:00,
2013-04-08 12:40:00,24.1,14.4,30.35,SE,146,0.0,2.0,66,0.00,,,0.00,VWS V14.01,2013-04-08 18:40:00,
2013-04-08 12:45:00,24.5,14.8,30.35,SE,134,0.0,2.0,66,0.00,,,0.00,VWS V14.01,2013-04-08 18:45:00,
2013-04-08 12:50:00,24.4,14.0,30.34,SSE,150,0.0,2.0,64,0.00,,,0.00,VWS V14.01,2013-04-08 18:50:00,
2013-04-08 12:55:00,24.5,14.8,30.34,SE,137,0.0,2.0,66,0.00,,,0.00,VWS V14.01,2013-04-08 18:55:00,
2013-04-08 13:00:00,25.0,15.3,30.34,SE,137,0.0,3.0,66,0.00,,,0.00,VWS V14.01,2013-04-08 19:00:00,
2013-04-08 13:05:00,25.0,14.9,30.33,SE,143,0.0,1.0,65,0.00,,,0.00,VWS V14.01,2013-04-08 19:05:00,
2013-04-08 13:10:00,25.1,14.6,30.33,South,169,0.0,2.0,64,0.00,,,0.00,VWS V14.01,2013-04-08 19:10:00,
2013-04-08 13:15:00,25.0,15.3,30.33,SE,135,1.0,2.0,66,0.00,,,0.00,VWS V14.01,2013-04-08 19:15:00,
2013-04-08 13:20:00,25.0,14.9,30.33,ESE,117,0.0,2.0,65,0.00,,,0.00,VWS V14.01,2013-04-08 19:20:00,
2013-04-08 13:25:00,25.0,15.3,30.33,SE,144,0.0,2.0,66,0.00,,,0.00,VWS V14.01,2013-04-08 19:25:00,
2013-04-08 13:30:00,25.1,15.4,30.34,ESE,109,0.0,2.0,66,0.00,,,0.00,VWS V14.01,2013-04-08 19:30:00,
2013-04-08 13:35:00,25.3,15.2,30.34,SSE,156,0.0,1.0,65,0.00,,,0.00,VWS V14.01,2013-04-08 19:35:00,
2013-04-08 13:40:00,25.3,15.2,30.34,SSE,159,1.0,1.0,65,0.00,,,0.00,VWS V14.01,2013-04-08 19:40:00,
2013-04-08 13:45:00,25.6,15.8,30.33,SE,125,0.0,2.0,66,0.00,,,0.00,VWS V14.01,2013-04-08 19:45:00,
2013-04-08 13:50:00,26.0,15.5,30.33,SE,131,0.0,2.0,64,0.00,,,0.00,VWS V14.01,2013-04-08 19:50:00,
2013-04-08 13:55:00,25.8,15.3,30.33,SSE,153,0.0,2.0,64,0.00,,,0.00,VWS V14.01,2013-04-08 19:55:00,
2013-04-08 14:00:00,25.7,14.9,30.33,ESE,115,0.0,4.0,63,0.00,,,0.00,VWS V14.01,2013-04-08 20:00:00,
2013-04-08 14:05:00,25.6,15.1,30.33,SE,143,0.0,3.0,64,0.00,,OVC200,0.00,VWS V14.01,2013-04-08 20:05:00,
2013-04-08 14:10:00,25.4,14.9,30.33,ESE,122,0.0,3.0,64,0.00,,OVC200,0.00,VWS V14.01,2013-04-08 20:10:00,
2013-04-08 14:15:00,25.1,14.6,30.34,SSE,151,0.0,5.0,64,0.00,,OVC200,0.00,VWS V14.01,2013-04-08 20:15:00,
2013-04-08 14:20:00,25.1,15.4,30.34,South,181,0.0,5.0,66,0.00,,OVC200,0.00,VWS V14.01,2013-04-08 20:20:00,
2013-04-08 14:26:00,25.0,14.9,30.34,SE,128,0.0,5.0,65,0.00,,OVC200,0.00,VWS V14.01,2013-04-08 20:26:00,
2013-04-08 14:31:00,24.7,15.3,30.34,SE,131,2.0,5.0,67,0.00,,OVC200,0.00,VWS V14.01,2013-04-08 20:31:00,
2013-04-08 14:36:00,24.8,15.8,30.34,SE,131,0.0,3.0,68,0.00,,BKN200,0.00,VWS V14.01,2013-04-08 20:36:00,
2013-04-08 14:41:00,25.0,15.9,30.34,South,174,0.0,3.0,68,0.00,,BKN200,0.00,VWS V14.01,2013-04-08 20:41:00,
2013-04-08 14:47:00,25.0,15.6,30.34,SSE,151,0.0,5.0,67,0.00,,BKN200,0.00,VWS V14.01,2013-04-08 20:47:00,
2013-04-08 14:52:00,25.1,16.0,30.34,SSE,163,0.0,5.0,68,0.00,,BKN200,0.00,VWS V14.01,2013-04-08 20:52:00,
2013-04-08 14:57:00,25.4,16.3,30.34,ESE,122,0.0,5.0,68,0.00,,BKN200,0.00,VWS V14.01,2013-04-08 20:57:00,
2013-04-08 15:02:00,25.8,16.4,30.33,SSE,155,0.0,0.0,67,0.00,,BKN200,0.00,VWS V14.01,2013-04-08 21:02:00,
2013-04-08 15:07:00,25.8,16.0,30.33,SE,127,0.0,2.0,66,0.00,,BKN200,0.00,VWS V14.01,2013-04-08 21:07:00,
2013-04-08 15:12:00,25.7,16.3,30.33,ESE,104,0.0,4.0,67,0.00,,BKN200,0.00,VWS V14.01,2013-04-08 21:12:00,
2013-04-08 15:17:00,26.0,16.6,30.34,SSE,162,0.0,4.0,67,0.00,,BKN200,0.00,VWS V14.01,2013-04-08 21:17:00,
2013-04-08 15:22:00,26.0,16.2,30.34,ESE,118,0.0,4.0,66,0.00,,BKN200,0.00,VWS V14.01,2013-04-08 21:22:00,
2013-04-08 15:27:00,25.8,15.7,30.34,East,98,4.0,4.0,65,0.00,,BKN200,0.00,VWS V14.01,2013-04-08 21:27:00,
2013-04-08 15:32:00,25.7,15.9,30.35,SE,131,0.0,0.0,66,0.00,,BKN200,0.00,VWS V14.01,2013-04-08 21:32:00,
2013-04-08 15:37:00,25.4,16.0,30.35,SSE,161,0.0,2.0,67,0.00,,OVC240,0.00,VWS V14.01,2013-04-08 21:37:00,
2013-04-08 15:42:00,25.6,16.2,30.35,SE,146,0.0,3.0,67,0.00,,OVC240,0.00,VWS V14.01,2013-04-08 21:42:00,
2013-04-08 15:47:00,25.6,16.2,30.34,South,169,0.0,3.0,67,0.00,,OVC240,0.00,VWS V14.01,2013-04-08 21:47:00,
2013-04-08 15:52:00,25.8,15.7,30.34,SE,139,0.0,3.0,65,0.00,,OVC240,0.00,VWS V14.01,2013-04-08 21:52:00,
2013-04-08 15:57:00,26.0,16.2,30.34,SE,141,0.0,3.0,66,0.00,,OVC240,0.00,VWS V14.01,2013-04-08 21:57:00,
2013-04-08 16:03:00,26.3,16.1,30.34,SE,129,0.0,0.0,65,0.00,,OVC240,0.00,VWS V14.01,2013-04-08 22:03:00,
2013-04-08 16:08:00,26.7,16.5,30.34,SE,125,0.0,3.0,65,0.00,,OVC240,0.00,VWS V14.01,2013-04-08 22:08:00,
2013-04-08 16:13:00,26.9,16.4,30.34,ESE,114,0.0,3.0,64,0.00,,OVC240,0.00,VWS V14.01,2013-04-08 22:13:00,
2013-04-08 16:18:00,26.7,16.2,30.34,SE,131,0.0,3.0,64,0.00,,OVC240,0.00,VWS V14.01,2013-04-08 22:18:00,
2013-04-08 16:23:00,26.7,15.8,30.34,South,169,0.0,3.0,63,0.00,,OVC240,0.00,VWS V14.01,2013-04-08 22:23:00,
2013-04-08 16:28:00,26.7,16.2,30.34,SSE,153,0.0,3.0,64,0.00,,OVC240,0.00,VWS V14.01,2013-04-08 22:28:00,
2013-04-08 16:33:00,26.4,16.2,30.35,SE,136,0.0,0.0,65,0.00,,OVC240,0.00,VWS V14.01,2013-04-08 22:33:00,
2013-04-08 16:38:00,26.3,15.8,30.35,SE,124,0.0,1.0,64,0.00,,OVC240,0.00,VWS V14.01,2013-04-08 22:38:00,
2013-04-08 16:43:00,26.3,16.1,30.35,South,172,0.0,1.0,65,0.00,,OVC240,0.00,VWS V14.01,2013-04-08 22:43:00,
2013-04-08 16:48:00,26.1,16.3,30.36,SE,141,0.0,2.0,66,0.00,,OVC240,0.00,VWS V14.01,2013-04-08 22:48:00,
2013-04-08 16:53:00,25.8,15.3,30.36,SSE,155,0.0,7.0,64,0.00,,OVC240,0.00,VWS V14.01,2013-04-08 22:53:00,
2013-04-08 16:58:00,25.8,16.0,30.36,ESE,117,0.0,7.0,66,0.00,,OVC240,0.00,VWS V14.01,2013-04-08 22:58:00,
2013-04-08 17:03:00,25.8,15.7,30.37,ESE,121,0.0,0.0,65,0.00,,OVC240,0.00,VWS V14.01,2013-04-08 23:03:00,
2013-04-08 17:08:00,25.7,15.9,30.37,SE,128,0.0,2.0,66,0.00,,OVC240,0.00,VWS V14.01,2013-04-08 23:08:00,
2013-04-08 17:13:00,25.7,16.3,30.37,ESE,122,0.0,2.0,67,0.00,,OVC240,0.00,VWS V14.01,2013-04-08 23:13:00,
2013-04-08 17:18:00,25.7,16.3,30.37,SE,141,0.0,2.0,67,0.00,,OVC240,0.00,VWS V14.01,2013-04-08 23:18:00,
2013-04-08 17:23:00,25.7,16.3,30.37,ESE,123,0.0,2.0,67,0.00,,OVC240,0.00,VWS V14.01,2013-04-08 23:23:00,
2013-04-08 17:28:00,25.7,16.3,30.37,SE,131,0.0,2.0,67,0.00,,OVC240,0.00,VWS V14.01,2013-04-08 23:28:00,
2013-04-08 17:33:00,25.7,15.9,30.37,SE,138,0.0,0.0,66,0.00,,OVC240,0.00,VWS V14.01,2013-04-08 23:33:00,
2013-04-08 17:38:00,25.4,15.6,30.37,SSE,164,0.0,1.0,66,0.00,,BKN031,0.00,VWS V14.01,2013-04-08 23:38:00,
2013-04-08 17:43:00,25.6,16.2,30.37,SE,139,0.0,1.0,67,0.00,,BKN031,0.00,VWS V14.01,2013-04-08 23:43:00,
2013-04-08 17:48:00,25.6,15.8,30.37,SE,141,0.0,1.0,66,0.00,,BKN031,0.00,VWS V14.01,2013-04-08 23:48:00,
2013-04-08 17:53:00,25.3,15.9,30.37,SE,126,0.0,2.0,67,0.00,,BKN031,0.00,VWS V14.01,2013-04-08 23:53:00,
2013-04-08 17:58:00,25.3,16.2,30.37,SSE,155,0.0,2.0,68,0.00,,BKN031,0.00,VWS V14.01,2013-04-08 23:58:00,
2013-04-08 18:03:00,25.0,16.3,30.37,SE,130,0.0,0.0,69,0.00,,BKN031,0.00,VWS V14.01,2013-04-09 00:03:00,
2013-04-08 18:08:00,24.7,15.7,30.37,ESE,103,0.0,0.0,68,0.00,,BKN031,0.00,VWS V14.01,2013-04-09 00:08:00,
2013-04-08 18:13:00,24.5,15.8,30.37,SSE,156,0.0,2.0,69,0.00,,BKN031,0.00,VWS V14.01,2013-04-09 00:13:00,
2013-04-08 18:18:00,24.7,16.0,30.38,ESE,110,0.0,2.0,69,0.00,,BKN031,0.00,VWS V14.01,2013-04-09 00:18:00,
2013-04-08 18:23:00,24.4,16.0,30.38,South,181,0.0,2.0,70,0.00,,BKN031,0.00,VWS V14.01,2013-04-09 00:23:00,
2013-04-08 18:28:00,24.1,15.8,30.38,SE,146,0.0,2.0,70,0.00,,BKN031,0.00,VWS V14.01,2013-04-09 00:28:00,
2013-04-08 18:33:00,24.1,15.8,30.39,East,93,0.0,1.0,70,0.00,,BKN031,0.00,VWS V14.01,2013-04-09 00:33:00,
2013-04-08 18:38:00,24.1,15.8,30.39,SE,127,0.0,3.0,70,0.00,,BKN240,0.00,VWS V14.01,2013-04-09 00:38:00,
2013-04-08 18:43:00,23.9,15.6,30.39,SE,141,0.0,6.0,70,0.00,,BKN240,0.00,VWS V14.01,2013-04-09 00:43:00,
2013-04-08 18:48:00,23.8,15.8,30.40,SE,124,0.0,6.0,71,0.00,,BKN240,0.00,VWS V14.01,2013-04-09 00:48:00,
2013-04-08 18:53:00,23.6,15.6,30.40,ESE,112,0.0,6.0,71,0.00,,BKN240,0.00,VWS V14.01,2013-04-09 00:53:00,
2013-04-08 18:58:00,23.5,15.2,30.40,SE,126,0.0,6.0,70,0.00,,BKN240,0.00,VWS V14.01,2013-04-09 00:58:00,
2013-04-08 19:03:00,23.2,15.2,30.40,ESE,108,0.0,1.0,71,0.00,,BKN240,0.00,VWS V14.01,2013-04-09 01:03:00,
2013-04-08 19:08:00,22.9,14.9,30.40,SE,133,0.0,3.0,71,0.00,,BKN240,0.00,VWS V14.01,2013-04-09 01:08:00,
2013-04-08 19:13:00,22.7,15.1,30.40,SSE,158,0.0,3.0,72,0.00,,BKN240,0.00,VWS V14.01,2013-04-09 01:13:00,
2013-04-08 19:18:00,22.5,14.9,30.41,SE,126,0.0,3.0,72,0.00,,BKN240,0.00,VWS V14.01,2013-04-09 01:18:00,
2013-04-08 19:23:00,22.5,15.2,30.41,SSE,168,1.0,3.0,73,0.00,,BKN240,0.00,VWS V14.01,2013-04-09 01:23:00,
2013-04-08 19:28:00,22.5,15.5,30.41,SSE,155,0.0,3.0,74,0.00,,BKN240,0.00,VWS V14.01,2013-04-09 01:28:00,
2013-04-08 19:33:00,22.4,15.4,30.42,SSE,162,4.0,5.0,74,0.00,,BKN240,0.00,VWS V14.01,2013-04-09 01:33:00,
2013-04-08 19:38:00,22.2,14.9,30.42,SE,126,0.0,5.0,73,0.00,,BKN240,0.00,VWS V14.01,2013-04-09 01:38:00,
2013-04-08 19:43:00,22.2,14.9,30.42,SE,141,0.0,5.0,73,0.00,,BKN240,0.00,VWS V14.01,2013-04-09 01:43:00,
2013-04-08 19:48:00,22.1,14.8,30.42,ESE,122,0.0,5.0,73,0.00,,BKN240,0.00,VWS V14.01,2013-04-09 01:48:00,
2013-04-08 19:53:00,21.9,14.6,30.42,SE,136,0.0,5.0,73,0.00,,BKN240,0.00,VWS V14.01,2013-04-09 01:53:00,
2013-04-08 19:58:00,21.8,14.8,30.42,SSE,149,0.0,5.0,74,0.00,,BKN240,0.00,VWS V14.01,2013-04-09 01:58:00,
2013-04-08 20:03:00,21.6,14.6,30.43,ESE,117,0.0,0.0,74,0.00,,BKN240,0.00,VWS V14.01,2013-04-09 02:03:00,
2013-04-08 20:08:00,21.4,14.4,30.43,ESE,115,0.0,3.0,74,0.00,,BKN240,0.00,VWS V14.01,2013-04-09 02:08:00,
2013-04-08 20:13:00,21.1,14.1,30.43,ESE,122,0.0,4.0,74,0.00,,BKN240,0.00,VWS V14.01,2013-04-09 02:13:00,
2013-04-08 20:18:00,21.1,14.1,30.43,ESE,112,0.0,4.0,74,0.00,,BKN240,0.00,VWS V14.01,2013-04-09 02:18:00,
2013-04-08 20:23:00,21.0,14.0,30.43,SE,144,0.0,4.0,74,0.00,,BKN240,0.00,VWS V14.01,2013-04-09 02:23:00,
2013-04-08 20:28:00,20.8,13.8,30.43,ESE,103,1.0,4.0,74,0.00,,BKN240,0.00,VWS V14.01,2013-04-09 02:28:00,
2013-04-08 20:33:00,20.8,13.8,30.44,NW,304,0.0,0.0,74,0.00,,BKN039,0.00,VWS V14.01,2013-04-09 02:33:00,
2013-04-08 20:38:00,20.6,13.6,30.44,SE,127,0.0,1.0,74,0.00,,BKN039,0.00,VWS V14.01,2013-04-09 02:38:00,
2013-04-08 20:43:00,20.6,13.6,30.44,SE,132,0.0,1.0,74,0.00,,BKN039,0.00,VWS V14.01,2013-04-09 02:43:00,
2013-04-08 20:48:00,20.6,13.6,30.44,SSE,148,0.0,2.0,74,0.00,,BKN039,0.00,VWS V14.01,2013-04-09 02:48:00,
2013-04-08 20:53:00,20.5,13.5,30.44,SSE,162,0.0,2.0,74,0.00,,BKN039,0.00,VWS V14.01,2013-04-09 02:53:00,
2013-04-08 20:58:00,20.5,13.5,30.44,SSE,158,0.0,2.0,74,0.00,,BKN039,0.00,VWS V14.01,2013-04-09 02:58:00,
2013-04-08 21:03:00,20.3,13.7,30.45,SE,145,0.0,0.0,75,0.00,,BKN039,0.00,VWS V14.01,2013-04-09 03:03:00,
2013-04-08 21:08:00,20.3,13.4,30.45,ESE,113,0.0,3.0,74,0.00,,BKN039,0.00,VWS V14.01,2013-04-09 03:08:00,
2013-04-08 21:13:00,20.3,13.7,30.45,SE,130,0.0,3.0,75,0.00,,BKN039,0.00,VWS V14.01,2013-04-09 03:13:00,
2013-04-08 21:18:00,20.2,13.6,30.45,ESE,114,0.0,3.0,75,0.00,,BKN039,0.00,VWS V14.01,2013-04-09 03:18:00,
2013-04-08 21:23:00,20.2,13.6,30.45,ESE,121,0.0,3.0,75,0.00,,BKN039,0.00,VWS V14.01,2013-04-09 03:23:00,
2013-04-08 21:28:00,20.0,13.7,30.45,ESE,122,0.0,3.0,76,0.00,,BKN039,0.00,VWS V14.01,2013-04-09 03:28:00,
2013-04-08 21:33:00,20.0,13.7,30.46,SE,143,0.0,2.0,76,0.00,,BKN039,0.00,VWS V14.01,2013-04-09 03:33:00,
2013-04-08 21:38:00,19.9,13.6,30.46,SE,141,0.0,5.0,76,0.00,,BKN039,0.00,VWS V14.01,2013-04-09 03:38:00,
2013-04-08 21:43:00,19.7,13.4,30.46,SE,126,0.0,5.0,76,0.00,,BKN039,0.00,VWS V14.01,2013-04-09 03:43:00,
2013-04-08 21:48:00,19.7,13.7,30.46,ESE,114,0.0,5.0,77,0.00,,BKN039,0.00,VWS V14.01,2013-04-09 03:48:00,
2013-04-08 21:53:00,19.5,13.5,30.46,SE,145,0.0,5.0,77,0.00,,BKN039,0.00,VWS V14.01,2013-04-09 03:53:00,
2013-04-08 21:58:00,19.5,13.5,30.46,ESE,115,0.0,5.0,77,0.00,,BKN039,0.00,VWS V14.01,2013-04-09 03:58:00,
2013-04-08 22:00:00,19.4,13.4,30.46,SE,130,0.0,5.0,77,0.00,,BKN039,0.00,VWS V14.01,2013-04-09 04:00:00,
2013-04-08 22:01:00,19.4,13.4,30.47,SE,127,0.0,0.0,77,0.00,,BKN039,0.00,VWS V14.01,2013-04-09 04:01:00,
2013-04-08 22:06:00,19.4,13.4,30.47,SSE,158,0.0,0.0,77,0.00,,OVC040,0.00,VWS V14.01,2013-04-09 04:06:00,
2013-04-08 22:11:00,19.2,13.2,30.47,ESE,115,0.0,0.0,77,0.00,,OVC040,0.00,VWS V14.01,2013-04-09 04:11:00,
2013-04-08 22:16:00,19.1,13.1,30.46,SE,127,0.0,1.0,77,0.00,,OVC040,0.00,VWS V14.01,2013-04-09 04:16:00,
2013-04-08 22:21:00,19.1,13.1,30.46,SSE,160,0.0,1.0,77,0.00,,OVC040,0.00,VWS V14.01,2013-04-09 04:21:00,
2013-04-08 22:26:00,18.9,12.9,30.46,SSE,148,0.0,1.0,77,0.00,,OVC040,0.00,VWS V14.01,2013-04-09 04:26:00,
2013-04-08 22:31:00,18.9,12.9,30.46,SSE,163,0.0,1.0,77,0.00,,OVC040,0.00,VWS V14.01,2013-04-09 04:31:00,
2013-04-08 22:36:00,18.9,12.9,30.46,SSE,155,0.0,0.0,77,0.00,,OVC110,0.00,VWS V14.01,2013-04-09 04:36:00,
2013-04-08 22:41:00,18.9,12.9,30.46,SSE,149,0.0,0.0,77,0.00,,OVC110,0.00,VWS V14.01,2013-04-09 04:41:00,
2013-04-08 22:46:00,18.9,13.2,30.47,SE,134,0.0,0.0,78,0.00,,OVC110,0.00,VWS V14.01,2013-04-09 04:46:00,
2013-04-08 22:51:00,18.8,13.1,30.47,SE,141,0.0,0.0,78,0.00,,OVC110,0.00,VWS V14.01,2013-04-09 04:51:00,
2013-04-08 22:57:00,18.6,12.9,30.47,SE,141,0.0,0.0,78,0.00,,OVC110,0.00,VWS V14.01,2013-04-09 04:57:00,
2013-04-08 23:02:00,18.6,12.9,30.47,SSE,153,0.0,0.0,78,0.00,,OVC110,0.00,VWS V14.01,2013-04-09 05:02:00,
2013-04-08 23:07:00,18.4,12.7,30.47,SE,146,0.0,0.0,78,0.00,,OVC110,0.00,VWS V14.01,2013-04-09 05:07:00,
2013-04-08 23:12:00,18.4,12.7,30.47,SSE,152,0.0,0.0,78,0.00,,OVC110,0.00,VWS V14.01,2013-04-09 05:12:00,
2013-04-08 23:17:00,18.3,12.6,30.46,SSE,152,0.0,0.0,78,0.00,,OVC110,0.00,VWS V14.01,2013-04-09 05:17:00,
2013-04-08 23:22:00,18.3,12.3,30.46,SSE,152,0.0,0.0,77,0.00,,OVC110,0.00,VWS V14.01,2013-04-09 05:22:00,
2013-04-08 23:27:00,18.3,12.3,30.46,SSE,152,0.0,0.0,77,0.00,,OVC110,0.00,VWS V14.01,2013-04-09 05:27:00,
2013-04-08 23:32:00,18.1,12.1,30.46,SSE,152,0.0,0.0,77,0.00,,OVC110,0.00,VWS V14.01,2013-04-09 05:32:00,
2013-04-08 23:37:00,18.1,12.1,30.46,SSE,152,0.0,0.0,77,0.00,,BKN075,0.00,VWS V14.01,2013-04-09 05:37:00,
2013-04-08 23:42:00,18.1,12.1,30.46,SSE,152,0.0,0.0,77,0.00,,BKN075,0.00,VWS V14.01,2013-04-09 05:42:00,
2013-04-08 23:47:00,18.0,12.0,30.46,SSE,152,0.0,0.0,77,0.00,,BKN075,0.00,VWS V14.01,2013-04-09 05:47:00,
2013-04-08 23:52:00,17.8,11.8,30.46,SSE,168,0.0,0.0,77,0.00,,BKN075,0.00,VWS V14.01,2013-04-09 05:52:00,
2013-04-08 23:57:00,17.8,11.5,30.46,SSE,168,0.0,0.0,76,0.00,,BKN075,0.00,VWS V14.01,2013-04-09 05:57:00,